Time,TemperatureF,DewpointF,PressureIn,WindDirection,WindDirectionDegrees,WindSpeedMPH,WindSpeedGustMPH,Humidity,HourlyPrecipIn,Conditions,Clouds,dailyrainin,SolarRadiationWatts/m^2,SoftwareType,DateUTC
2015-04-28 07:42:00,40.2,38.1,30.29,ESE,105,2.0,7.0,92,0.00,,,0.00,258,Wunderground v.1.15,2015-04-28 12:42:00,
2015-04-28 07:47:00,40.9,38.2,30.28,ESE,105,0.0,7.0,90,0.00,,,0.00,276,Wunderground v.1.15,2015-04-28 12:47:00,
2015-04-28 07:52:00,41.6,38.9,30.29,ESE,105,0.0,7.0,90,0.00,,,0.00,295,Wunderground v.1.15,2015-04-28 12:52:00,
2015-04-28 07:57:00,42.9,39.6,30.28,ESE,105,0.0,7.0,88,0.00,,,0.00,322,Wunderground v.1.15,2015-04-28 12:57:00,
2015-04-28 08:02:00,44.6,39.8,30.29,ENE,74,1.0,2.0,83,0.00,,,0.00,343,Wunderground v.1.15,2015-04-28 13:02:00,
2015-04-28 08:07:00,45.8,39.7,30.28,ENE,74,0.0,2.0,79,0.00,,,0.00,360,Wunderground v.1.15,2015-04-28 13:07:00,
2015-04-28 08:12:00,46.8,39.3,30.28,NE,55,2.0,2.0,75,0.00,,,0.00,381,Wunderground v.1.15,2015-04-28 13:12:00,
2015-04-28 08:17:00,47.6,38.7,30.29,NE,56,0.0,2.0,71,0.00,,,0.00,399,Wunderground v.1.15,2015-04-28 13:17:00,
2015-04-28 08:22:00,48.1,39.5,30.28,ENE,66,2.0,2.0,72,0.00,,,0.00,417,Wunderground v.1.15,2015-04-28 13:22:00,
2015-04-28 08:27:00,48.5,38.8,30.28,NE,51,3.0,4.0,69,0.00,,,0.00,432,Wunderground v.1.15,2015-04-28 13:27:00,
2015-04-28 08:32:00,48.8,39.1,30.28,North,350,1.0,5.0,69,0.00,,,0.00,452,Wunderground v.1.15,2015-04-28 13:32:00,
2015-04-28 08:37:00,48.5,37.7,30.28,NNW,347,2.0,5.0,66,0.00,,,0.00,464,Wunderground v.1.15,2015-04-28 13:37:00,
2015-04-28 08:42:00,48.0,36.8,30.28,NNW,330,1.0,5.0,65,0.00,,,0.00,483,Wunderground v.1.15,2015-04-28 13:42:00,
2015-04-28 08:47:00,48.2,37.8,30.27,NNW,332,5.0,5.0,67,0.00,,,0.00,497,Wunderground v.1.15,2015-04-28 13:47:00,
2015-04-28 08:52:00,48.8,37.6,30.28,North,360,2.0,4.0,65,0.00,,,0.00,512,Wunderground v.1.15,2015-04-28 13:52:00,
2015-04-28 08:57:00,49.0,37.3,30.28,NNW,346,2.0,4.0,64,0.00,,,0.00,526,Wunderground v.1.15,2015-04-28 13:57:00,
2015-04-28 09:02:00,48.7,37.5,30.28,NNE,20,1.0,4.0,65,0.00,,,0.00,540,Wunderground v.1.15,2015-04-28 14:02:00,
2015-04-28 09:07:00,48.8,38.3,30.27,NNW,327,1.0,5.0,67,0.00,,,0.00,555,Wunderground v.1.15,2015-04-28 14:07:00,
2015-04-28 09:12:00,49.7,38.8,30.27,NW,312,2.0,4.0,66,0.00,,,0.00,573,Wunderground v.1.15,2015-04-28 14:12:00,
2015-04-28 09:17:00,50.2,37.7,30.27,NNE,31,1.0,5.0,62,0.00,,,0.00,589,Wunderground v.1.15,2015-04-28 14:17:00,
2015-04-28 09:22:00,51.0,39.2,30.27,NNW,328,2.0,5.0,64,0.00,,,0.00,601,Wunderground v.1.15,2015-04-28 14:22:00,
2015-04-28 09:27:00,50.6,37.2,30.27,WNW,290,5.0,7.0,60,0.00,,,0.00,619,Wunderground v.1.15,2015-04-28 14:27:00,
2015-04-28 09:32:00,50.0,37.5,30.27,NNW,341,1.0,5.0,62,0.00,,,0.00,629,Wunderground v.1.15,2015-04-28 14:32:00,
2015-04-28 09:37:00,50.5,38.8,30.27,SE,126,4.0,5.0,64,0.00,,,0.00,640,Wunderground v.1.15,2015-04-28 14:37:00,
2015-04-28 09:42:00,51.6,38.6,30.27,ESE,119,0.0,2.0,61,0.00,,,0.00,650,Wunderground v.1.15,2015-04-28 14:42:00,
2015-04-28 09:47:00,52.0,38.1,30.27,North,5,3.0,7.0,59,0.00,,,0.00,671,Wunderground v.1.15,2015-04-28 14:47:00,
2015-04-28 09:52:00,51.2,37.4,30.26,NNW,344,1.0,7.0,59,0.00,,,0.00,689,Wunderground v.1.15,2015-04-28 14:52:00,
2015-04-28 10:02:00,51.5,37.6,30.26,East,80,2.0,4.0,59,0.00,,,0.00,715,Wunderground v.1.15,2015-04-28 15:02:00,
2015-04-28 10:07:00,52.4,38.5,30.25,North,350,2.0,5.0,59,0.00,,,0.00,724,Wunderground v.1.15,2015-04-28 15:07:00,
2015-04-28 10:12:00,53.2,38.4,30.26,North,5,4.0,7.0,57,0.00,,,0.00,737,Wunderground v.1.15,2015-04-28 15:12:00,
2015-04-28 10:17:00,53.8,39.4,30.26,ENE,72,1.0,7.0,58,0.00,,,0.00,744,Wunderground v.1.15,2015-04-28 15:17:00,
2015-04-28 10:22:00,54.6,38.7,30.26,NE,50,2.0,6.0,55,0.00,,,0.00,759,Wunderground v.1.15,2015-04-28 15:22:00,
2015-04-28 10:27:00,54.8,39.4,30.25,NNW,342,4.0,6.0,56,0.00,,,0.00,779,Wunderground v.1.15,2015-04-28 15:27:00,
2015-04-28 10:32:00,55.0,39.1,30.25,North,5,2.0,5.0,55,0.00,,,0.00,777,Wunderground v.1.15,2015-04-28 15:32:00,
2015-04-28 10:37:00,55.5,39.6,30.25,North,355,5.0,6.0,55,0.00,,,0.00,775,Wunderground v.1.15,2015-04-28 15:37:00,
2015-04-28 10:42:00,55.1,38.7,30.25,East,82,1.0,6.0,54,0.00,,,0.00,735,Wunderground v.1.15,2015-04-28 15:42:00,